Date,TemperatureHighF,TemperatureAvgF,TemperatureLowF,DewpointHighF,DewpointAvgF,DewpointLowF,HumidityHigh,HumidityAvg,HumidityLow,PressureMaxIn,PressureMinIn,WindSpeedMaxMPH,WindSpeedAvgMPH,GustSpeedMaxMPH,PrecipitationSumIn
2013-1-1,47.5,42.4,37.8,46.7,38.7,35.9,97,87,77,30.02,29.50,8,5,21,0.04
2013-1-2,51.1,44.8,39.6,50.1,43.1,36.8,98,94,87,30.32,30.04,8,5,14,0.00
2013-1-3,51.7,50.2,48.3,49.9,48.8,47.7,98,95,93,30.60,30.33,9,6,20,0.01
2013-1-4,49.9,48.5,46.0,48.0,46.1,44.2,97,91,86,30.65,30.59,7,5,17,0.00
2013-1-5,50.4,47.8,43.7,48.3,46.5,42.9,99,95,90,30.59,30.51,7,4,15,0.00
2013-1-6,46.9,45.2,43.5,46.5,44.8,43.0,100,99,96,30.51,30.39,6,3,13,0.01
2013-1-7,48.2,45.7,43.8,46.4,44.9,43.1,99,97,93,30.39,30.24,6,4,14,0.00
2013-1-8,50.8,49.2,47.0,48.8,47.4,45.6,99,94,91,30.26,30.18,9,6,17,0.04
2013-1-9,49.3,43.9,31.5,48.5,42.0,30.7,99,93,76,30.19,30.08,3,2,11,0.07
2013-1-10,36.8,34.3,30.1,36.0,33.6,29.6,99,97,95,30.07,29.93,3,1,8,0.01
2013-1-11,43.1,36.9,33.4,40.4,35.7,32.6,98,95,89,30.08,29.99,3,1,7,0.00
2013-1-12,39.9,37.2,33.0,36.5,33.7,29.4,99,87,66,29.98,29.86,11,6,27,0.08
2013-1-13,36.8,34.1,30.6,33.0,30.5,27.9,90,87,82,30.15,29.97,7,3,16,0.00
2013-1-14,36.8,33.2,31.0,35.4,31.8,29.5,98,94,88,30.10,29.63,7,3,19,0.10
2013-1-15,38.0,33.8,28.9,33.9,31.6,27.6,95,92,85,29.87,29.63,8,3,19,0.00
2013-1-16,30.7,28.4,25.7,29.9,27.5,24.7,98,96,92,30.02,29.84,4,2,10,0.00
2013-1-17,34.4,30.2,24.1,32.0,28.3,23.1,96,92,83,30.08,29.90,3,1,9,0.00
2013-1-18,34.4,30.4,28.1,29.5,28.1,26.5,97,91,80,29.88,29.45,8,6,21,0.06
2013-1-19,32.9,31.5,30.4,31.8,29.6,27.2,97,93,87,29.50,29.41,8,5,18,0.04
2013-1-20,32.0,30.7,29.3,30.7,28.9,26.5,96,93,86,29.49,29.28,7,4,20,0.12
2013-1-21,33.6,31.2,27.9,31.5,29.9,26.7,97,95,92,29.49,29.26,4,1,7,0.00
2013-1-22,35.8,30.6,23.3,34.2,29.3,22.3,99,95,87,29.69,29.50,8,4,18,0.02
2013-1-23,35.0,34.1,33.3,33.0,32.0,30.8,96,92,89,29.81,29.69,8,5,16,0.01
2013-1-24,35.1,33.9,32.5,32.4,30.9,29.6,94,89,83,30.14,29.81,6,2,14,0.00
2013-1-25,37.4,33.2,29.4,35.6,30.5,27.6,96,90,83,30.12,29.57,6,3,20,0.04
2013-1-26,45.2,40.7,35.5,43.4,38.6,34.6,98,93,82,29.83,29.55,9,5,22,0.32
2013-1-27,50.5,45.7,38.8,49.3,40.7,33.8,98,83,58,29.61,29.26,16,11,32,0.20
2013-1-28,50.7,43.1,35.0,48.5,40.6,33.7,97,91,82,29.81,29.51,15,9,37,0.15
2013-1-29,55.9,52.4,48.1,53.7,50.6,45.8,99,94,84,29.64,29.52,16,12,32,0.07
2013-1-30,54.7,49.2,44.0,53.1,44.0,39.0,97,83,64,30.01,29.50,20,12,39,0.19
2013-1-31,50.0,47.2,43.3,45.1,41.4,39.4,90,80,68,30.02,29.78,16,11,35,0.08
2013-2-1,45.3,41.7,38.0,41.7,39.4,36.4,97,91,80,29.83,29.46,8,4,18,0.20
2013-2-2,42.0,37.8,30.8,38.1,32.2,26.8,93,80,66,30.24,29.61,7,4,21,0.00
2013-2-3,48.4,40.1,30.5,46.3,37.4,26.7,95,90,83,30.25,29.91,12,6,24,0.01
2013-2-4,49.9,47.5,43.3,47.3,40.3,34.0,94,77,58,29.94,29.73,13,10,33,0.01
2013-2-5,42.0,39.5,35.3,38.7,33.0,28.0,91,78,59,29.70,29.33,13,11,35,0.12
2013-2-6,41.9,39.3,35.1,39.2,34.5,28.9,93,83,72,30.05,29.36,9,7,24,0.03
2013-2-7,40.8,36.7,33.3,36.1,31.8,27.6,96,82,74,30.11,29.99,6,4,17,0.02
2013-2-8,41.4,37.2,31.8,37.1,33.7,30.5,95,88,76,30.16,30.03,5,3,13,0.01
2013-2-9,37.5,36.2,34.3,36.1,34.7,32.5,98,94,87,30.16,29.87,5,2,12,0.03
2013-2-10,40.3,37.1,33.0,39.8,36.6,32.5,99,98,96,29.86,29.27,9,5,21,0.70
2013-2-11,34.4,33.5,32.8,33.6,32.9,32.3,99,97,96,29.77,29.29,5,4,13,0.11
2013-2-12,35.9,34.3,33.1,32.5,31.2,29.5,96,89,82,30.14,29.78,5,3,12,0.00
2013-2-13,37.9,32.1,32.8,37.4,22.5,-99.9,98,82,71,30.20,29.98,6,3,16,0.03
2013-2-14,50.3,45.3,38.7,46.5,42.1,38.2,99,89,71,29.97,29.73,8,5,19,0.16
2013-2-15,50.5,42.9,37.7,41.0,38.3,36.1,94,84,65,30.20,29.97,6,2,15,0.00
2013-2-16,50.3,43.2,36.8,41.8,37.9,35.5,96,82,62,30.25,30.19,4,1,9,0.00
2013-2-17,49.4,39.5,33.3,41.2,35.4,32.3,98,87,52,30.21,30.10,6,3,16,0.00
2013-2-18,46.1,39.3,34.2,38.1,35.9,32.4,97,88,71,30.14,30.10,6,4,13,0.01
2013-2-19,52.8,38.5,27.8,39.2,33.2,26.8,97,83,49,30.14,30.06,2,0,8,0.00
2013-2-20,41.4,36.4,33.2,37.6,32.3,28.0,98,86,70,30.27,30.10,10,6,24,0.04
2013-2-21,34.9,33.7,32.3,28.1,25.0,22.3,76,70,65,30.26,30.18,10,8,22,0.00
2013-2-22,35.8,33.5,31.8,27.3,24.9,22.4,79,71,64,30.17,30.11,10,7,21,0.00
2013-2-23,36.1,33.2,30.5,31.7,27.8,26.2,92,80,70,30.21,30.10,6,4,15,0.00
2013-2-24,35.2,32.7,32.1,30.2,29.1,27.6,91,86,76,30.28,30.20,6,4,17,0.00
2013-2-25,38.9,36.2,33.8,36.0,33.5,27.3,93,90,77,30.37,30.26,7,5,17,0.00
2013-2-26,40.2,38.2,36.2,38.8,37.1,34.9,98,96,88,30.57,30.35,9,6,22,0.02
2013-2-27,44.9,37.8,34.8,36.8,35.1,33.1,98,90,73,30.58,30.49,7,6,16,0.01
2013-2-28,50.1,39.5,34.7,38.7,35.0,32.5,94,85,58,30.48,30.34,9,6,22,0.00
2013-3-1,43.8,39.8,35.8,41.1,35.6,31.8,97,85,70,30.41,30.36,8,5,17,0.03
2013-3-2,40.4,36.5,29.1,33.8,31.7,27.3,93,83,75,30.40,30.28,5,2,16,0.00
2013-3-3,45.5,37.4,27.9,37.4,33.3,26.4,95,86,69,30.28,30.12,8,3,18,0.00
2013-3-4,50.9,40.5,33.7,37.3,34.5,32.0,94,80,53,30.10,29.75,8,4,17,0.00
2013-3-5,60.0,45.4,31.4,44.9,38.8,30.2,97,79,56,29.74,29.59,4,1,11,0.00
2013-3-6,54.5,48.9,44.4,45.6,42.9,39.9,90,80,70,29.58,29.51,6,4,13,0.01
2013-3-7,48.9,46.8,44.4,48.1,46.0,43.0,99,97,91,29.51,29.37,6,4,11,0.26
2013-3-8,49.9,48.0,45.6,49.6,47.8,45.3,100,99,99,29.54,29.38,5,2,10,0.28
2013-3-9,45.0,41.7,37.5,44.7,40.7,35.7,99,96,91,29.67,29.54,4,2,10,0.09
2013-3-10,37.7,35.5,32.5,35.5,32.7,28.9,95,90,84,29.75,29.66,10,7,24,0.00
2013-3-11,33.7,31.0,27.2,28.6,23.9,18.8,86,75,57,29.77,29.74,16,12,32,0.00
2013-3-12,41.1,33.3,27.0,32.8,25.0,19.2,91,73,46,29.83,29.75,12,8,29,0.00
2013-3-13,44.7,37.2,30.9,31.9,29.6,25.7,91,75,47,29.95,29.79,6,4,18,0.00
2013-3-14,44.7,36.4,27.9,32.7,27.4,24.0,95,72,44,30.03,29.92,5,3,16,0.01
2013-3-15,47.3,41.8,35.5,42.8,38.8,28.1,96,89,72,29.91,29.54,12,8,29,0.31
2013-3-16,46.4,43.0,38.3,42.7,40.9,36.7,96,92,85,29.52,29.26,12,8,30,0.46
2013-3-17,43.6,38.7,33.4,41.7,37.4,32.9,98,95,89,29.31,29.16,10,3,22,0.27
2013-3-18,45.8,36.5,29.6,42.7,35.7,29.1,99,97,86,29.36,29.22,4,1,11,0.13
2013-3-19,46.4,38.6,33.4,39.5,35.9,32.6,98,90,69,29.51,29.36,5,2,10,0.01
2013-3-20,41.7,37.8,33.9,38.9,36.1,32.6,98,93,89,30.00,29.51,4,3,11,0.00
2013-3-21,42.7,37.9,32.4,36.0,33.5,30.9,95,84,74,30.03,29.92,10,6,24,0.02
2013-3-22,41.7,37.6,35.1,35.9,34.5,32.7,95,88,79,29.91,29.74,14,10,28,0.19
2013-3-23,36.3,33.8,33.0,35.0,32.7,31.9,98,96,94,29.89,29.75,10,8,22,0.18
2013-3-24,33.7,31.8,30.6,31.8,28.4,25.3,95,88,72,29.95,29.87,10,8,22,0.00
2013-3-25,33.7,32.9,31.7,28.1,26.4,24.6,83,77,71,29.98,29.93,11,8,26,0.00
2013-3-26,34.2,33.0,31.4,28.0,26.2,25.4,86,76,70,29.95,29.90,9,7,19,0.00
2013-3-27,40.2,34.1,29.5,28.7,26.7,25.2,90,75,61,29.89,29.86,9,5,19,0.00
2013-3-28,39.7,35.2,30.1,31.1,27.8,24.8,92,75,60,29.95,29.85,8,5,18,0.00
2013-3-29,43.1,35.8,28.8,29.4,26.0,23.5,85,69,49,29.93,29.79,9,5,20,0.00
2013-3-30,44.3,36.6,32.8,32.5,29.2,27.4,85,75,59,29.97,29.79,7,5,17,0.00
2013-3-31,41.6,35.4,26.6,30.0,26.6,23.7,92,72,50,29.99,29.90,8,4,17,0.00
2013-4-1,42.5,36.0,31.7,31.0,28.0,24.5,86,73,53,29.90,29.85,12,8,26,0.00
2013-4-2,47.9,38.3,30.1,31.7,25.4,19.4,89,63,36,30.07,29.89,11,8,25,0.00
2013-4-3,43.5,36.5,31.3,31.7,27.3,23.9,92,70,51,30.07,30.01,13,8,32,0.00
2013-4-4,38.0,35.4,32.4,33.3,29.2,24.1,88,78,58,30.01,29.93,10,8,25,0.01
2013-4-5,48.3,39.3,33.7,32.3,28.6,22.5,84,67,37,30.12,29.92,13,9,27,0.00
2013-4-6,53.3,41.6,31.4,32.5,29.7,26.6,91,66,37,30.28,30.13,7,4,17,0.00
2013-4-7,49.6,40.4,28.7,32.4,26.9,20.7,86,61,33,30.27,29.89,6,2,15,0.00
2013-4-8,49.6,42.7,37.5,35.1,31.5,27.1,82,66,44,29.88,29.57,10,6,22,0.00
2013-4-9,48.7,42.5,36.6,41.4,38.4,34.1,95,86,71,29.55,29.39,10,5,22,0.03
2013-4-10,51.3,43.2,36.3,42.4,38.6,34.7,96,84,65,29.72,29.46,8,4,17,0.17
2013-4-11,53.0,45.4,41.4,47.6,43.3,40.6,97,93,76,29.49,29.37,9,4,21,0.20
2013-4-12,53.4,47.2,43.2,48.1,44.8,41.8,98,92,74,29.73,29.29,9,4,19,0.22
2013-4-13,52.1,46.8,38.2,51.5,45.4,37.4,98,95,81,29.90,29.74,11,5,23,0.17
2013-4-14,65.0,57.5,52.3,52.5,50.6,47.4,98,79,58,29.93,29.87,14,10,29,0.01
2013-4-15,58.8,53.9,49.0,49.4,47.8,45.6,90,80,68,30.05,29.92,13,9,23,0.00
2013-4-16,60.8,53.8,48.3,48.7,46.0,43.2,93,76,54,30.08,29.88,14,9,29,0.00
2013-4-17,63.1,54.9,47.4,52.5,49.5,45.5,98,83,65,30.07,29.75,17,9,34,0.00
2013-4-18,55.6,50.4,45.9,45.5,40.6,33.1,82,70,47,30.06,29.76,16,13,35,0.05
2013-4-19,55.8,49.0,43.5,42.1,39.8,36.2,86,72,50,30.49,30.07,9,5,18,0.00
2013-4-20,60.0,46.2,34.7,39.1,33.6,28.9,96,66,33,30.55,30.37,5,2,15,0.00
2013-4-21,56.1,46.0,33.4,41.2,35.2,30.5,90,68,41,30.36,30.03,9,4,17,0.00
2013-4-22,56.4,49.0,40.7,48.0,43.3,39.4,96,82,57,30.02,29.94,11,6,22,0.00
2013-4-23,68.4,56.9,49.2,51.1,48.7,47.2,97,76,52,30.20,29.97,8,5,18,0.00
2013-4-24,65.3,55.8,45.6,55.1,50.0,44.1,96,82,67,30.24,30.18,10,5,20,0.00
2013-4-25,69.2,60.3,52.9,56.1,52.1,48.4,95,76,52,30.25,30.03,12,5,24,0.03
2013-4-26,55.4,48.4,42.2,48.8,39.0,29.6,95,72,42,30.04,29.90,8,4,20,0.23
2013-4-27,53.0,43.8,37.1,41.5,36.6,32.2,92,77,51,30.11,29.89,10,4,26,0.01
2013-4-28,52.6,47.7,36.2,40.1,34.7,29.9,89,62,43,30.11,29.90,12,8,23,0.00
2013-4-29,56.1,49.4,44.1,43.5,37.6,34.0,91,66,44,30.17,29.88,10,6,22,0.01
2013-4-30,58.8,49.5,39.6,41.8,37.6,33.3,89,66,39,30.32,30.17,7,4,17,0.00
2013-5-1,63.9,54.3,39.1,40.2,33.3,28.3,89,49,26,30.32,30.17,6,4,15,0.00
2013-5-2,65.8,53.1,39.5,37.2,29.6,18.9,76,46,18,30.23,30.16,7,3,17,0.00
2013-5-3,64.3,52.9,38.4,45.1,39.4,34.0,85,62,40,30.18,30.04,9,4,19,0.00
2013-5-4,61.4,52.7,44.2,48.3,42.5,37.4,90,70,42,30.12,29.97,14,8,29,0.00
2013-5-5,64.3,55.3,43.7,50.6,46.9,40.5,91,74,59,30.19,30.13,7,3,15,0.00
2013-5-6,69.0,59.2,47.0,50.4,47.1,44.2,92,67,43,30.17,30.04,4,1,10,0.00
2013-5-7,70.6,59.6,45.1,48.6,45.4,42.3,91,62,39,30.08,29.87,7,3,16,0.00
2013-5-8,61.7,55.4,48.3,54.9,50.1,43.1,96,83,67,29.85,29.68,12,6,26,0.06
2013-5-9,56.2,49.6,42.6,47.5,42.8,39.5,93,78,55,29.82,29.65,18,11,38,0.05
2013-5-10,59.8,52.8,47.8,49.3,47.1,43.8,95,82,58,29.91,29.66,13,10,27,0.05
2013-5-11,56.0,48.1,42.7,48.2,43.4,41.1,96,84,64,29.91,29.78,15,8,30,0.19
2013-5-12,56.5,48.9,40.4,50.8,43.9,38.8,97,84,57,30.01,29.89,10,8,22,0.05
2013-5-13,56.4,51.4,43.8,50.2,42.7,34.7,96,74,44,29.90,29.79,15,9,36,0.01
2013-5-14,50.3,46.4,43.1,46.2,42.5,40.3,97,86,70,29.80,29.37,8,6,20,0.29
2013-5-15,55.8,48.5,42.9,46.4,42.3,38.9,97,80,58,29.54,29.12,12,6,29,0.02
2013-5-16,60.4,48.3,35.6,46.0,40.2,32.2,97,77,37,29.56,29.48,4,2,13,0.13
2013-5-17,53.2,48.4,44.0,46.8,44.4,42.4,97,87,71,29.76,29.56,6,3,13,0.00
2013-5-18,60.5,52.7,47.0,47.5,45.0,42.7,89,76,59,29.81,29.71,6,3,16,0.00
2013-5-19,68.3,56.3,44.4,50.9,47.8,42.5,94,75,53,29.90,29.78,5,2,13,0.00
2013-5-20,63.7,57.2,51.0,58.0,53.7,48.5,95,88,81,29.90,29.83,6,4,16,0.02
2013-5-21,60.0,56.2,52.4,56.7,51.5,49.3,92,85,71,30.07,29.90,6,4,20,0.02
2013-5-22,58.4,51.6,46.4,49.5,44.9,36.5,95,79,52,30.09,30.01,8,4,19,0.00
2013-5-23,52.1,45.9,41.3,42.1,37.7,34.3,88,73,55,30.01,29.88,7,5,20,0.02
2013-5-24,48.1,43.7,40.9,46.5,40.7,37.3,96,89,81,30.02,29.61,11,7,26,0.26
2013-5-25,61.8,50.7,41.6,44.6,41.0,38.4,95,72,44,30.18,30.03,5,4,16,0.01
2013-5-26,66.9,54.9,42.4,42.6,39.7,36.5,86,59,37,30.13,29.95,6,4,14,0.00
2013-5-27,62.7,52.5,40.0,44.6,39.5,28.9,94,65,29,29.95,29.64,12,6,27,0.00
2013-5-28,53.1,50.4,48.5,52.3,48.4,43.5,98,93,72,29.63,29.47,6,2,17,0.48
2013-5-29,54.4,50.4,45.9,52.7,49.0,45.1,97,95,89,29.76,29.56,5,2,13,0.05
2013-5-30,59.0,54.1,51.1,54.0,51.9,50.3,98,93,81,30.00,29.75,6,4,16,0.16
2013-5-31,71.8,60.4,51.2,57.2,52.5,49.0,93,77,53,30.11,30.00,5,4,14,0.00
2013-6-1,66.6,57.0,48.9,49.8,45.3,42.1,85,66,45,30.30,30.12,7,5,17,0.00
2013-6-2,67.2,57.1,46.5,45.6,43.6,41.0,90,63,40,30.43,30.30,5,3,13,0.00
2013-6-3,67.4,57.2,44.2,46.7,44.1,41.5,91,64,44,30.49,30.40,8,3,17,0.00
2013-6-4,70.0,57.4,44.5,49.5,45.1,39.3,88,66,44,30.42,30.22,9,6,22,0.00
2013-6-5,70.1,57.1,46.3,53.8,48.7,43.5,92,75,54,30.23,30.09,6,5,16,0.00
2013-6-6,72.7,58.3,46.5,53.8,48.6,44.1,93,72,50,30.19,30.13,8,6,17,0.00
2013-6-7,68.7,58.6,47.5,53.3,47.6,42.9,85,68,51,30.22,30.17,9,6,19,0.00
2013-6-8,65.2,55.6,47.2,49.3,46.8,44.2,90,73,54,30.22,30.07,9,7,21,0.00
2013-6-9,62.3,54.2,49.6,48.2,46.4,44.6,85,75,59,30.08,29.97,7,6,18,0.00
2013-6-10,59.8,53.3,47.6,48.2,45.0,43.3,85,74,60,30.00,29.95,3,2,9,0.00
2013-6-11,62.3,55.7,47.4,58.6,51.8,44.2,94,87,78,29.96,29.88,9,4,21,0.01
2013-6-12,61.1,58.6,55.9,59.2,55.9,52.4,96,91,80,29.88,29.78,11,8,25,0.08
2013-6-13,62.3,56.8,52.4,56.1,51.7,47.3,97,83,63,30.02,29.76,16,11,33,0.01
2013-6-14,65.0,55.9,46.8,52.5,48.1,38.3,93,77,39,30.05,29.80,10,6,22,0.00
2013-6-15,59.6,55.4,49.6,53.6,49.1,43.5,94,80,60,29.86,29.68,13,9,29,0.40
2013-6-16,62.1,56.4,51.0,51.6,49.7,47.9,91,79,66,29.96,29.86,9,5,17,0.01
2013-6-17,67.8,59.9,53.5,53.7,51.4,49.5,90,74,57,29.97,29.91,9,5,20,0.01
2013-6-18,68.2,61.9,54.0,62.4,56.7,50.5,93,83,77,29.97,29.90,7,3,15,0.00
2013-6-19,79.2,67.9,58.6,62.9,60.1,56.4,97,78,49,29.97,29.92,6,2,15,0.00
2013-6-20,67.8,64.4,60.4,62.7,59.9,57.3,90,85,79,29.95,29.78,7,3,15,0.02
2013-6-21,69.7,61.6,56.4,62.8,57.3,54.7,97,87,64,29.86,29.76,8,5,17,0.03
2013-6-22,60.5,56.8,52.4,57.2,53.3,50.2,97,88,77,29.85,29.64,14,10,28,0.20
2013-6-23,61.1,56.9,52.2,54.0,52.3,48.8,96,85,73,30.00,29.64,12,9,29,0.11
2013-6-24,62.2,55.6,49.2,48.3,46.4,44.9,89,72,53,30.29,30.01,8,4,19,0.00
2013-6-25,69.7,59.1,48.8,49.0,46.6,44.3,90,66,42,30.41,30.30,5,2,10,0.00
2013-6-26,69.4,60.0,48.4,53.3,49.4,45.3,90,70,49,30.43,30.35,6,2,14,0.00
2013-6-27,65.6,57.4,49.9,53.5,50.2,46.9,96,78,56,30.38,30.18,6,4,15,0.03
2013-6-28,68.6,60.5,53.5,62.7,58.1,52.4,97,92,81,30.17,30.04,9,4,19,0.06
2013-6-29,72.0,62.6,53.9,58.2,50.6,47.3,90,67,44,30.24,30.07,6,4,17,0.00
2013-6-30,75.5,65.6,56.8,60.0,56.4,51.7,96,74,49,30.24,30.07,11,6,24,0.00
2013-7-1,66.7,60.6,54.3,53.3,50.6,48.8,90,71,53,30.07,29.98,9,5,19,0.00
2013-7-2,61.4,56.7,50.5,54.8,51.7,48.3,92,84,73,29.98,29.65,8,4,19,0.02
2013-7-3,67.9,61.5,57.1,58.4,56.3,54.5,98,84,66,30.00,29.60,9,5,21,0.03
2013-7-4,73.0,63.1,53.6,61.9,56.5,51.4,97,80,58,30.24,30.00,11,6,23,0.00
2013-7-5,79.4,66.1,52.7,59.6,54.5,51.0,94,69,42,30.41,30.25,5,2,12,0.00
2013-7-6,81.7,68.8,54.8,61.7,56.5,52.2,92,67,43,30.41,30.34,4,2,14,0.00
2013-7-7,85.2,72.7,58.9,62.6,59.0,56.6,93,65,39,30.49,30.41,6,3,14,0.00
2013-7-8,80.8,69.3,58.6,62.9,58.5,55.0,89,70,49,30.52,30.42,8,5,18,0.00
2013-7-9,81.6,67.5,51.3,57.0,48.7,43.6,92,56,27,30.44,30.26,6,4,15,0.00
2013-7-10,76.1,64.8,53.4,60.1,52.6,45.1,82,65,53,30.29,30.25,9,5,21,0.00
2013-7-11,74.3,61.6,51.1,52.0,49.0,45.7,86,65,44,30.30,30.23,6,5,15,0.00
2013-7-12,79.2,63.1,50.6,59.5,54.0,48.1,92,74,49,30.30,30.21,4,2,11,0.00
2013-7-13,90.3,74.2,57.2,66.0,60.7,54.6,91,66,38,30.23,30.20,4,2,15,0.00
2013-7-14,84.4,73.5,61.3,64.2,59.7,55.3,92,65,39,30.24,30.17,6,2,15,0.00
2013-7-15,87.4,73.2,59.9,57.4,49.4,36.7,78,48,22,30.22,30.17,4,2,12,0.00
2013-7-16,85.3,74.0,60.4,61.9,57.1,53.6,85,58,34,30.21,30.15,5,2,11,0.00
2013-7-17,89.5,74.8,60.8,67.9,60.6,56.6,89,64,37,30.26,30.18,6,2,21,0.04
2013-7-18,85.6,73.9,61.8,60.0,57.7,55.3,84,60,37,30.31,30.25,7,4,16,0.00
2013-7-19,83.9,71.5,58.7,60.7,56.4,50.6,77,61,42,30.30,30.19,9,5,21,0.00
2013-7-20,75.1,67.2,60.3,61.2,59.1,56.2,92,76,62,30.24,30.14,8,6,20,0.00
2013-7-21,80.0,68.6,61.2,62.6,59.3,54.4,87,73,53,30.17,30.02,8,4,16,0.00
2013-7-22,88.6,74.2,60.8,66.1,62.1,58.5,93,69,40,30.04,29.92,6,3,17,0.01
2013-7-23,81.8,72.4,65.3,69.3,64.5,60.0,94,77,59,29.94,29.87,7,3,15,0.34
2013-7-24,77.2,67.4,58.5,60.8,58.7,55.9,91,75,51,29.96,29.91,9,5,18,0.00
2013-7-25,76.1,67.4,61.7,65.3,61.0,57.5,97,81,54,29.92,29.86,9,4,19,0.14
2013-7-26,78.5,67.4,55.3,60.1,56.0,52.9,95,70,46,29.91,29.84,5,2,11,0.00
2013-7-27,80.8,67.0,54.6,64.9,56.6,52.0,96,73,39,29.84,29.57,6,2,16,0.24
2013-7-28,73.0,65.0,57.8,60.2,57.9,55.2,97,79,55,29.76,29.57,12,8,25,0.03
2013-7-29,70.8,63.5,58.2,60.8,58.6,53.9,96,85,65,29.95,29.76,13,6,30,0.13
2013-7-30,69.2,62.0,58.0,64.9,60.0,56.5,98,93,82,29.96,29.84,7,4,16,0.32
2013-7-31,72.9,65.3,60.2,65.2,61.3,57.5,97,87,75,29.98,29.94,10,6,23,0.03
2013-8-1,89.6,76.0,62.3,67.6,63.7,61.1,96,69,40,29.93,29.67,8,4,24,0.00
2013-8-2,75.7,68.0,61.3,63.8,59.5,54.8,93,76,52,29.80,29.72,10,6,22,0.01
2013-8-3,70.9,64.3,58.9,59.8,57.2,55.4,95,79,58,30.08,29.77,11,6,21,0.12
2013-8-4,71.8,64.6,58.2,58.3,56.4,54.2,95,76,56,30.09,30.02,11,6,22,0.00
2013-8-5,70.8,63.6,58.9,61.4,59.0,57.2,97,85,66,30.02,29.76,7,4,20,0.61
2013-8-6,71.7,62.0,51.8,56.9,52.6,49.7,97,74,49,30.03,29.90,4,1,10,0.01
2013-8-7,74.7,64.3,55.7,56.7,52.2,48.9,95,67,43,30.03,29.91,6,3,17,0.00
2013-8-8,74.7,63.5,49.7,56.0,51.6,47.2,92,68,43,30.11,30.03,7,3,17,0.00
2013-8-9,73.5,65.0,59.1,62.3,55.2,49.0,97,73,46,30.17,30.01,7,5,19,0.03
2013-8-10,70.1,62.3,54.9,53.2,49.9,47.3,83,65,47,30.19,30.12,7,3,17,0.00
2013-8-11,70.6,63.8,57.7,57.7,52.6,48.0,92,69,47,30.12,30.00,9,5,21,0.00
2013-8-12,67.5,60.7,53.7,53.8,49.7,45.8,91,69,47,30.08,29.99,8,4,19,0.00
2013-8-13,65.7,58.1,50.7,56.6,50.9,47.1,95,78,51,30.20,30.08,8,3,17,0.03
2013-8-14,69.7,59.9,49.3,59.9,54.7,48.2,97,84,59,30.22,30.14,8,3,18,0.03
2013-8-15,70.8,64.7,61.0,66.1,62.3,60.1,98,92,77,30.14,29.99,10,5,20,0.15
2013-8-16,74.0,65.3,61.3,64.7,62.0,59.6,96,89,69,29.99,29.92,8,5,16,0.07
2013-8-17,66.3,60.8,55.5,60.8,57.4,54.7,97,89,73,29.97,29.73,12,6,28,0.03
2013-8-18,71.8,64.8,59.1,61.6,56.9,52.4,96,77,54,29.89,29.71,11,7,20,0.01
2013-8-19,71.4,62.2,52.6,54.1,50.8,48.8,91,68,47,30.30,29.89,6,3,13,0.00
2013-8-20,73.9,63.0,51.7,55.0,51.3,48.6,91,68,44,30.35,30.28,5,2,12,0.00
2013-8-21,77.3,64.7,51.2,58.2,53.3,48.6,92,69,43,30.29,30.14,6,2,14,0.01
2013-8-22,72.4,65.2,60.9,65.3,62.1,58.4,97,90,74,30.15,30.05,4,1,11,0.18
2013-8-23,77.6,68.6,60.3,62.8,60.1,57.1,97,76,51,30.05,29.86,7,3,17,0.01
2013-8-24,66.1,62.7,57.2,63.3,59.9,54.3,97,91,82,29.86,29.81,7,3,15,0.33
2013-8-25,76.3,63.9,54.4,63.9,58.3,51.7,97,83,58,30.04,29.82,7,4,16,0.09
2013-8-26,77.6,66.9,59.1,62.0,57.4,52.1,94,74,46,30.09,30.02,6,3,15,0.00
2013-8-27,76.5,63.5,52.8,58.3,52.9,49.7,98,72,39,30.12,30.05,4,2,16,0.00
2013-8-28,77.0,63.7,52.1,57.3,53.1,49.2,97,71,43,30.21,30.12,3,1,9,0.00
2013-8-29,73.9,64.4,55.5,58.5,56.0,53.8,95,76,53,30.18,30.12,8,3,19,0.00
2013-8-30,73.3,64.8,57.1,60.4,58.4,55.5,95,81,59,30.13,30.03,9,5,20,0.00
2013-8-31,70.4,61.8,53.7,59.7,48.4,42.3,93,64,38,30.39,30.11,6,4,16,0.00
2013-9-1,70.1,58.2,48.0,52.8,47.8,43.3,87,70,45,30.43,30.32,7,4,18,0.00
2013-9-2,77.0,63.9,50.7,59.8,55.3,49.3,95,75,54,30.34,30.28,6,3,14,0.00
2013-9-3,76.7,66.0,55.2,61.6,58.5,53.6,95,78,54,30.35,30.26,5,1,10,0.00
2013-9-4,81.1,67.8,53.7,63.1,57.2,51.7,94,72,40,30.26,30.00,5,2,14,0.00
2013-9-5,84.6,68.5,54.6,62.8,56.9,51.9,97,70,40,29.99,29.75,5,1,11,0.00
2013-9-6,62.9,58.4,53.8,56.2,53.2,49.7,93,83,68,29.82,29.72,7,3,13,0.00
2013-9-7,63.2,55.7,50.3,51.9,48.9,46.4,93,79,55,30.03,29.81,9,4,21,0.02
2013-9-8,59.7,52.5,44.4,51.0,47.3,43.1,95,84,60,30.06,30.02,9,3,22,0.04
2013-9-9,55.9,51.0,45.7,54.5,49.9,44.6,97,96,91,30.05,29.97,5,2,12,0.29
2013-9-10,60.5,54.1,47.3,52.3,48.9,46.1,96,83,64,30.15,30.05,7,4,18,0.01
2013-9-11,61.4,56.1,52.5,54.2,51.0,48.3,96,83,67,30.17,30.10,6,4,22,0.07
2013-9-12,66.9,58.5,53.9,58.4,55.6,53.1,98,91,71,30.11,30.06,4,1,9,0.07
2013-9-13,62.9,60.6,53.9,62.4,59.6,53.1,99,96,91,30.06,29.90,5,2,14,0.66
2013-9-14,57.0,51.7,46.4,52.5,49.3,45.3,97,92,78,30.08,29.90,7,3,18,0.07
2013-9-15,58.8,50.8,40.7,58.2,48.5,39.9,98,92,78,30.07,29.54,13,6,29,0.11
2013-9-16,57.5,51.1,44.9,46.7,42.7,40.0,89,74,52,29.64,29.58,12,7,27,0.03
2013-9-17,56.5,50.6,44.4,55.7,47.8,41.5,98,90,78,29.64,29.35,8,5,15,0.18
2013-9-18,60.4,53.7,49.3,52.7,48.6,44.7,96,84,65,29.86,29.41,7,3,18,0.01
2013-9-19,60.8,52.4,44.0,59.7,49.7,42.7,97,91,81,29.90,29.73,11,4,23,0.04
2013-9-20,65.8,55.8,48.5,52.8,50.1,47.1,96,82,59,30.18,29.88,5,2,13,0.00
2013-9-21,64.7,56.8,47.7,61.4,54.5,46.1,96,92,87,30.31,30.18,7,3,15,0.00
2013-9-22,67.7,62.4,56.3,62.1,60.1,54.9,98,92,81,30.37,30.30,4,2,10,0.00
2013-9-23,62.6,58.8,54.3,59.8,57.0,53.5,98,94,88,30.34,30.13,3,1,7,0.00
2013-9-24,70.2,57.8,48.6,61.4,55.1,48.1,99,91,72,30.12,29.93,3,1,8,0.02
2013-9-25,70.2,61.1,55.1,61.8,57.9,54.0,98,90,72,29.93,29.83,4,1,9,0.00
2013-9-26,64.7,58.9,53.4,57.7,53.2,50.5,94,82,62,30.06,29.91,6,4,14,0.00
2013-9-27,64.5,55.3,48.2,52.7,50.2,46.8,96,84,63,30.06,29.93,7,4,16,0.00
2013-9-28,65.6,57.5,51.8,57.8,52.6,47.8,97,84,64,29.93,29.75,8,6,18,0.00
2013-9-29,67.0,59.1,55.1,55.3,53.2,51.6,90,81,66,29.75,29.71,9,6,20,0.01
2013-9-30,65.9,59.1,53.6,56.2,53.2,50.1,92,81,64,29.78,29.68,7,5,15,0.00
2013-10-1,62.0,56.5,50.5,55.7,52.4,49.1,96,87,76,29.82,29.75,7,4,16,0.00
2013-10-2,67.3,60.5,55.8,61.9,57.0,52.4,96,89,77,29.88,29.78,7,4,15,0.02
2013-10-3,64.3,60.4,55.9,62.7,59.1,55.1,98,96,92,29.87,29.70,6,3,16,0.05
2013-10-4,68.0,63.4,59.2,63.5,60.1,57.5,98,90,75,29.93,29.66,12,6,24,0.02
2013-10-5,64.2,58.8,53.7,57.7,55.4,52.3,98,89,75,30.25,29.93,3,1,9,0.00
2013-10-6,65.9,54.7,43.9,54.0,49.6,43.1,98,84,61,30.30,30.25,5,2,12,0.00
2013-10-7,64.5,55.8,49.0,58.6,53.5,48.2,99,92,77,30.30,30.24,6,3,11,0.01
2013-10-8,66.1,60.2,56.1,60.1,57.6,54.8,98,91,79,30.27,30.22,8,4,15,0.00
2013-10-9,61.0,54.7,45.6,54.5,49.8,39.8,94,84,68,30.23,29.99,7,3,20,0.01
2013-10-10,53.3,47.8,43.4,42.3,39.9,37.6,84,74,61,30.12,30.00,8,7,22,0.00
2013-10-11,55.5,51.8,46.0,52.4,48.4,40.2,94,88,78,30.14,29.98,12,9,30,0.12
2013-10-12,57.3,53.1,49.0,53.1,49.1,46.6,96,87,70,30.12,29.98,11,4,30,0.08
2013-10-13,52.4,49.9,46.9,51.8,48.7,45.8,98,96,92,30.00,29.77,8,4,19,0.37
2013-10-14,50.5,48.0,47.1,48.8,47.0,45.9,98,96,93,29.76,29.70,9,5,18,0.28
2013-10-15,57.1,49.5,45.8,50.9,47.5,45.0,97,93,78,29.95,29.75,5,3,11,0.00
2013-10-16,58.4,49.3,40.8,57.0,47.8,40.0,99,95,82,29.97,29.69,11,4,23,0.16
2013-10-17,62.5,55.9,49.9,56.1,52.7,48.5,96,90,75,30.00,29.79,11,5,22,0.01
2013-10-18,61.3,56.0,50.3,57.1,54.1,49.2,99,94,84,30.01,29.78,6,3,16,0.00
2013-10-19,62.2,57.5,53.9,60.4,56.2,52.8,99,96,90,29.77,29.62,7,3,17,0.12
2013-10-20,61.7,55.4,52.8,57.4,54.1,52.1,98,96,85,29.72,29.62,9,5,21,0.69
2013-10-21,62.3,58.8,54.8,58.8,56.9,53.7,98,94,88,29.74,29.60,10,6,22,0.06
2013-10-22,63.4,60.3,55.0,60.2,58.2,53.9,97,93,88,29.59,29.32,8,6,29,0.16
2013-10-23,60.7,56.0,46.5,56.4,52.0,44.9,97,87,65,29.84,29.23,13,8,28,0.15
2013-10-24,61.9,51.3,39.8,54.4,48.4,39.0,99,90,72,29.98,29.82,5,2,15,0.01
2013-10-25,63.7,59.1,55.0,59.7,56.2,53.4,99,90,80,29.82,29.58,11,7,26,0.10
2013-10-26,60.8,58.7,57.3,57.0,55.2,53.4,95,88,82,29.68,29.47,13,9,32,0.06
2013-10-27,59.3,55.2,50.5,55.9,51.3,48.6,98,87,72,29.47,29.23,16,10,32,0.44
2013-10-28,60.2,52.3,45.9,59.3,49.6,43.3,98,91,80,29.56,28.86,25,10,56,0.63
2013-10-29,53.7,47.3,41.7,46.9,42.7,39.4,95,84,65,30.05,29.58,9,6,20,0.01
2013-10-30,56.2,47.9,37.4,51.6,44.5,36.6,98,88,73,30.17,30.05,9,5,20,0.01
2013-10-31,54.6,53.6,52.4,53.8,51.7,49.7,97,93,87,30.06,29.92,9,6,22,0.12
2013-11-1,55.2,53.1,51.0,54.1,51.8,49.9,98,95,92,29.92,29.55,8,4,18,0.05
2013-11-2,57.1,51.8,48.9,52.6,47.9,42.7,98,87,69,29.56,29.36,17,8,37,0.01
2013-11-3,52.3,47.3,44.4,44.0,42.0,39.9,98,82,69,29.56,29.07,13,9,28,0.36
2013-11-4,50.4,43.7,38.0,44.1,40.3,36.7,98,88,72,29.48,29.02,9,5,21,0.18
2013-11-5,52.8,45.9,37.1,50.4,42.8,35.9,99,90,73,29.50,29.25,11,5,33,0.23
2013-11-6,58.3,52.4,47.4,56.3,50.9,43.2,99,95,83,29.53,29.45,15,7,30,0.15
2013-11-7,57.1,48.3,42.5,55.7,45.8,41.4,96,91,79,29.77,29.50,10,3,20,0.01
2013-11-8,48.2,42.3,36.2,47.7,41.6,35.4,99,97,96,29.76,29.58,6,2,12,0.14
2013-11-9,44.3,40.5,36.8,43.7,39.9,36.3,99,98,96,29.76,29.61,6,2,13,0.08
2013-11-10,50.2,42.1,34.8,41.9,38.5,33.6,99,88,62,30.26,29.62,7,3,18,0.01
2013-11-11,54.8,47.6,34.5,54.5,47.0,33.2,99,97,92,30.25,30.13,7,3,17,0.23
2013-11-12,54.7,49.3,40.3,54.4,47.4,38.7,99,94,81,30.50,30.14,6,2,14,0.05
2013-11-13,49.2,42.1,33.9,43.2,39.1,33.0,98,89,74,30.56,30.20,9,3,19,0.01
2013-11-14,48.9,45.1,39.4,44.7,40.7,36.0,95,85,73,30.41,30.11,11,7,28,0.03
2013-11-15,51.5,41.5,35.1,40.5,36.1,33.4,94,81,65,30.53,30.42,5,3,13,0.00
2013-11-16,46.2,40.1,32.1,44.9,39.0,31.3,98,96,89,30.52,30.38,4,1,10,0.00
2013-11-17,49.0,46.8,44.1,47.3,45.7,43.3,97,96,93,30.38,30.02,3,1,8,0.02
2013-11-18,47.8,46.0,43.0,46.7,45.1,40.6,99,96,91,30.01,29.76,5,2,14,0.00
2013-11-19,43.3,37.6,30.1,39.4,33.4,27.8,94,85,67,30.06,29.80,7,3,16,0.01
2013-11-20,43.2,36.6,28.4,42.1,34.7,26.7,96,93,85,30.04,29.40,10,5,21,0.18
2013-11-21,47.0,41.2,37.7,39.9,37.7,35.0,96,88,72,29.94,29.42,12,7,27,0.02
2013-11-22,47.0,40.7,37.3,39.3,36.6,34.2,96,86,70,30.17,29.93,8,5,21,0.00
2013-11-23,45.9,40.9,35.6,40.7,37.9,34.6,96,89,77,30.32,30.17,5,4,13,0.00
2013-11-24,46.3,42.6,39.6,43.4,39.4,37.0,93,88,81,30.57,30.32,6,4,16,0.00
2013-11-25,44.0,41.1,38.8,39.5,37.9,36.4,95,88,81,30.69,30.57,4,3,12,0.01
2013-11-26,46.9,40.0,31.9,39.9,35.8,30.4,95,85,70,30.71,30.58,4,2,9,0.00
2013-11-27,51.3,46.4,42.3,48.8,44.8,39.6,96,94,90,30.57,30.49,2,1,7,0.01
2013-11-28,49.8,47.1,45.8,46.7,45.3,44.5,97,93,88,30.57,30.51,3,1,8,0.00
2013-11-29,49.6,46.1,42.7,44.5,42.2,38.7,96,86,73,30.51,30.18,10,5,23,0.01
2013-11-30,46.8,41.9,36.4,40.7,37.5,34.2,92,84,79,30.47,30.19,7,4,17,0.00
2013-12-1,49.1,42.6,33.0,44.2,40.1,31.7,95,91,82,30.56,30.44,3,1,8,0.00
2013-12-2,48.5,45.4,42.6,43.5,42.3,40.4,95,89,77,30.57,30.46,2,1,9,0.00
2013-12-3,43.1,42.0,40.4,40.9,37.6,35.9,93,84,81,30.45,30.32,4,2,9,0.00
2013-12-4,46.7,41.6,34.3,44.4,38.0,32.5,96,87,69,30.49,30.29,5,3,14,0.01
2013-12-5,50.7,40.5,31.8,44.8,35.6,30.8,97,83,60,30.47,30.01,18,8,35,0.04
2013-12-6,46.3,42.1,37.9,41.4,36.2,31.7,95,80,70,30.38,30.24,7,4,20,0.00
2013-12-7,47.0,44.0,40.4,44.3,42.4,39.4,97,94,89,30.35,30.27,7,5,14,0.00
2013-12-8,51.1,44.9,40.2,46.8,43.1,39.2,97,93,84,30.31,30.24,9,6,20,0.03
2013-12-9,51.0,44.2,39.9,47.2,43.0,39.1,99,96,86,30.41,30.30,7,3,15,0.02
2013-12-10,46.8,40.3,34.6,46.2,39.4,34.1,99,97,92,30.46,30.40,4,1,9,0.01
2013-12-11,40.4,35.9,32.3,39.9,35.5,31.9,99,99,97,30.44,30.31,2,0,6,0.01
2013-12-12,47.0,41.0,31.4,46.7,40.8,31.2,100,99,99,30.31,30.19,5,2,10,0.02
2013-12-13,52.8,49.3,44.4,50.4,47.7,42.8,99,94,83,30.19,30.01,7,4,18,0.02
2013-12-14,51.8,45.5,37.4,48.6,43.0,36.1,96,91,82,30.29,30.04,15,8,30,0.05
2013-12-15,54.1,51.0,45.1,53.3,50.1,44.0,98,97,92,30.16,29.98,12,8,26,0.39
2013-12-16,54.9,51.9,43.7,53.3,50.6,42.6,98,96,92,30.12,29.92,14,8,31,0.33
2013-12-17,43.0,41.1,39.3,42.5,40.3,38.5,99,97,95,30.27,29.99,4,1,12,0.16
2013-12-18,49.7,45.8,40.0,48.6,44.6,39.5,99,96,91,29.98,29.27,13,7,33,0.21
2013-12-19,47.8,42.3,37.4,45.9,39.3,36.4,96,89,75,29.83,29.30,11,6,25,0.06
2013-12-20,50.7,42.7,35.5,46.6,39.8,34.2,96,89,81,30.17,29.85,16,9,33,0.02
2013-12-21,53.2,50.8,47.6,51.4,48.8,42.4,97,93,82,30.02,29.68,18,12,38,0.23
2013-12-22,49.2,44.5,38.8,44.5,40.4,36.4,93,86,72,29.91,29.70,16,8,33,0.09
2013-12-23,52.6,47.1,38.7,51.0,45.3,36.3,97,93,90,29.90,28.84,18,10,49,0.62
2013-12-24,52.5,45.6,40.9,51.1,42.6,38.3,96,89,77,28.97,28.76,19,9,44,0.50
2013-12-25,43.5,38.9,36.1,40.4,37.4,35.1,97,95,84,29.18,28.92,9,3,19,0.07
2013-12-26,43.9,38.6,37.0,42.5,37.9,36.5,98,97,88,29.50,29.17,11,3,28,0.03
2013-12-27,51.4,47.9,42.3,50.6,42.1,37.8,97,81,67,29.25,28.99,17,12,43,0.10
2013-12-28,46.3,39.7,33.8,39.5,36.3,32.8,96,88,77,29.70,29.25,8,4,15,0.00
2013-12-29,44.2,37.4,30.7,42.0,35.4,30.0,98,93,82,30.08,29.72,7,4,16,0.01
2013-12-30,50.0,46.7,41.3,47.9,44.2,40.0,96,91,83,29.99,29.64,16,9,40,0.16
2013-12-31,49.9,44.7,40.6,47.9,43.5,39.3,98,96,92,29.84,29.54,11,5,26,0.39
2014-1-1,50.6,46.9,42.0,49.5,45.7,40.9,98,95,92,29.57,29.03,11,8,29,0.33
2014-1-2,50.2,46.7,42.1,47.9,44.2,40.9,97,91,81,29.44,29.05,10,7,23,0.16